createdAt,value
2018-02-20T00:00:07.310Z,18.95
2018-02-20T00:02:35.599Z,19.65
2018-02-20T00:05:03.894Z,18.30
2018-02-20T00:07:32.958Z,19.42
2018-02-20T00:10:01.328Z,19.00
2018-02-20T00:12:29.663Z,19.55
2018-02-20T00:14:57.949Z,18.95
2018-02-20T00:17:26.272Z,19.40
2018-02-20T00:19:54.570Z,20.05
2018-02-20T00:22:23.660Z,20.05
2018-02-20T00:24:51.934Z,20.73
2018-02-20T00:27:21.026Z,20.90
2018-02-20T00:29:49.323Z,21.52
2018-02-20T00:32:18.401Z,19.40
2018-02-20T00:34:47.460Z,20.58
2018-02-20T00:37:15.781Z,21.15
2018-02-20T00:39:44.878Z,18.70
2018-02-20T00:42:13.924Z,21.42
2018-02-20T00:44:42.977Z,22.05
2018-02-20T00:47:11.274Z,21.33
2018-02-20T00:49:39.569Z,19.80
2018-02-20T00:52:07.866Z,21.77
2018-02-20T00:54:36.159Z,21.58
2018-02-20T00:57:05.221Z,22.43
2018-02-20T00:59:33.532Z,21.70
2018-02-20T01:02:02.614Z,21.20
2018-02-20T01:04:30.900Z,22.80
2018-02-20T01:06:59.234Z,21.48
2018-02-20T01:09:27.546Z,24.17
2018-02-20T01:11:55.844Z,21.62
2018-02-20T01:14:24.890Z,21.42
2018-02-20T01:16:53.230Z,21.98
2018-02-20T01:19:21.525Z,24.63
2018-02-20T01:21:49.831Z,21.95
2018-02-20T01:24:18.135Z,20.60
2018-02-20T01:26:47.190Z,20.90
2018-02-20T01:29:15.486Z,21.25
2018-02-20T01:31:43.803Z,21.48
2018-02-20T01:34:12.115Z,18.92
2018-02-20T01:36:40.433Z,21.83
2018-02-20T01:39:09.500Z,19.17
2018-02-20T01:41:37.792Z,19.70
2018-02-20T01:44:06.079Z,19.65
2018-02-20T01:46:34.378Z,19.02
2018-02-20T01:49:02.676Z,20.30
2018-02-20T01:51:30.981Z,20.88
2018-02-20T01:53:59.309Z,20.25
2018-02-20T01:56:27.626Z,20.35
2018-02-20T01:58:55.962Z,20.05
2018-02-20T02:01:25.039Z,19.67
2018-02-20T02:03:53.358Z,20.25
2018-02-20T02:06:21.660Z,19.83
2018-02-20T02:08:49.972Z,20.75
2018-02-20T02:11:19.027Z,21.23
2018-02-20T02:13:47.322Z,19.65
2018-02-20T02:16:15.634Z,19.60
2018-02-20T02:18:43.920Z,21.95
2018-02-20T02:21:12.254Z,21.98
2018-02-20T02:23:40.549Z,18.15
2018-02-20T02:26:09.622Z,20.40
2018-02-20T02:28:37.909Z,17.98
2018-02-20T02:31:06.229Z,19.83
2018-02-20T02:33:34.517Z,21.77
2018-02-20T02:36:02.813Z,20.33
2018-02-20T02:38:31.105Z,21.67
2018-02-20T02:40:59.388Z,20.00
2018-02-20T02:43:27.716Z,20.45
2018-02-20T02:45:55.988Z,19.83
2018-02-20T02:48:24.284Z,19.55
2018-02-20T02:50:52.590Z,19.52
2018-02-20T02:53:20.891Z,22.10
2018-02-20T02:55:49.961Z,19.87
2018-02-20T02:58:18.252Z,21.10
2018-02-20T03:00:47.303Z,22.73
2018-02-20T03:03:15.634Z,21.37
2018-02-20T03:05:44.687Z,23.55
2018-02-20T03:10:47.517Z,21.33
2018-02-20T03:13:16.583Z,24.80
2018-02-20T03:15:44.883Z,21.95
2018-02-20T03:18:14.032Z,22.40
2018-02-20T03:20:42.327Z,21.95
2018-02-20T03:23:10.620Z,21.25
2018-02-20T03:25:38.945Z,22.75
2018-02-20T03:28:07.229Z,22.15
2018-02-20T03:30:35.558Z,22.92
2018-02-20T03:33:03.839Z,22.05
2018-02-20T03:35:32.143Z,24.00
2018-02-20T03:38:00.450Z,25.98
2018-02-20T03:40:28.719Z,24.10
2018-02-20T03:42:57.019Z,23.38
2018-02-20T03:45:25.319Z,23.73
2018-02-20T03:47:53.628Z,27.10
2018-02-20T03:50:21.907Z,27.25
2018-02-20T03:52:50.220Z,25.83
2018-02-20T03:55:18.529Z,24.42
2018-02-20T03:57:47.584Z,26.70
2018-02-20T04:00:15.886Z,25.15
2018-02-20T04:02:44.226Z,24.48
2018-02-20T04:05:12.519Z,25.35
2018-02-20T04:07:40.820Z,22.75
2018-02-20T04:10:09.141Z,21.83
2018-02-20T04:12:37.465Z,20.92
2018-02-20T04:15:05.784Z,21.42
2018-02-20T04:17:34.848Z,19.33
2018-02-20T04:20:03.182Z,19.95
2018-02-20T04:22:31.495Z,18.40
2018-02-20T04:24:59.831Z,19.50
2018-02-20T04:27:28.147Z,19.62
2018-02-20T04:29:56.448Z,19.75
2018-02-20T04:32:24.742Z,19.80
2018-02-20T04:34:53.048Z,21.48
2018-02-20T04:37:21.386Z,20.73
2018-02-20T04:39:49.708Z,21.52
2018-02-20T04:42:18.017Z,20.60
2018-02-20T04:44:46.354Z,19.65
2018-02-20T04:47:14.707Z,21.05
2018-02-20T04:49:43.019Z,22.73
2018-02-20T04:52:11.326Z,22.15
2018-02-20T04:54:39.633Z,23.48
2018-02-20T04:57:07.981Z,22.17
2018-02-20T04:59:36.340Z,22.30
2018-02-20T05:02:04.647Z,25.50
2018-02-20T05:04:32.946Z,24.00
2018-02-20T05:07:01.247Z,24.27
2018-02-20T05:09:29.539Z,23.42
2018-02-20T05:11:57.890Z,24.25
2018-02-20T05:14:26.175Z,21.27
2018-02-20T05:16:54.473Z,22.80
2018-02-20T05:19:22.751Z,22.27
2018-02-20T05:21:51.070Z,21.87
2018-02-20T05:24:20.155Z,24.37
2018-02-20T05:26:49.231Z,22.73
2018-02-20T05:29:17.591Z,22.73
2018-02-20T05:31:45.925Z,22.90
2018-02-20T05:34:14.246Z,24.27
2018-02-20T05:36:42.621Z,24.45
2018-02-20T05:39:10.932Z,24.98
2018-02-20T05:41:39.251Z,26.58
2018-02-20T05:44:07.567Z,25.35
2018-02-20T05:46:35.890Z,24.92
2018-02-20T05:49:04.206Z,23.35
2018-02-20T05:51:32.512Z,25.12
2018-02-20T05:54:00.846Z,25.92
2018-02-20T05:56:29.117Z,29.05
2018-02-20T05:58:57.448Z,23.87
2018-02-20T06:01:26.547Z,24.40
2018-02-20T06:03:55.610Z,26.25
2018-02-20T06:06:23.923Z,26.62
2018-02-20T06:08:53.015Z,27.33
2018-02-20T06:11:22.127Z,24.23
2018-02-20T06:13:50.442Z,26.75
2018-02-20T06:16:18.767Z,24.95
2018-02-20T06:18:47.830Z,25.75
2018-02-20T06:21:16.135Z,27.13
2018-02-20T06:23:45.182Z,27.70
2018-02-20T06:26:13.466Z,27.00
2018-02-20T06:28:41.764Z,27.77
2018-02-20T06:31:10.065Z,29.30
2018-02-20T06:33:39.127Z,31.02
2018-02-20T06:36:07.473Z,29.37
2018-02-20T06:38:35.766Z,29.37
2018-02-20T06:41:04.056Z,29.55
2018-02-20T06:43:32.333Z,31.67
2018-02-20T06:46:00.617Z,30.27
2018-02-20T06:48:28.900Z,26.90
2018-02-20T06:50:57.214Z,31.65
2018-02-20T06:53:25.516Z,27.80
2018-02-20T06:55:53.841Z,28.27
2018-02-20T06:58:22.165Z,28.60
2018-02-20T07:00:50.458Z,30.70
2018-02-20T07:03:18.758Z,29.37
2018-02-20T07:05:47.084Z,26.83
2018-02-20T07:08:15.359Z,27.17
2018-02-20T07:10:43.690Z,29.52
2018-02-20T07:13:11.971Z,28.40
2018-02-20T07:15:41.050Z,23.83
2018-02-20T07:18:09.319Z,22.13
2018-02-20T07:20:37.627Z,22.75
2018-02-20T07:23:06.699Z,20.17
2018-02-20T07:25:35.012Z,20.02
2018-02-20T07:28:03.306Z,20.05
2018-02-20T07:30:31.616Z,18.05
2018-02-20T07:32:59.919Z,20.27
2018-02-20T07:35:28.204Z,18.40
2018-02-20T07:37:57.262Z,20.50
2018-02-20T07:40:25.583Z,20.17
2018-02-20T07:42:53.859Z,20.83
2018-02-20T07:45:22.288Z,18.80
2018-02-20T07:47:50.629Z,20.70
2018-02-20T07:50:18.935Z,20.05
2018-02-20T07:52:47.255Z,18.73
2018-02-20T07:55:15.582Z,19.23
2018-02-20T07:57:43.893Z,19.40
2018-02-20T08:00:12.225Z,19.20
2018-02-20T08:02:40.543Z,20.17
2018-02-20T08:05:08.839Z,18.10
2018-02-20T08:07:37.187Z,18.98
2018-02-20T08:10:05.490Z,20.30
2018-02-20T08:12:34.545Z,20.75
2018-02-20T08:15:02.823Z,20.67
2018-02-20T08:17:31.155Z,19.62
2018-02-20T08:19:59.408Z,18.85
2018-02-20T08:22:28.462Z,21.08
2018-02-20T08:24:56.753Z,20.95
2018-02-20T08:27:25.036Z,21.45
2018-02-20T08:29:53.318Z,20.05
2018-02-20T08:32:21.606Z,21.98
2018-02-20T08:34:50.672Z,21.58
2018-02-20T08:37:18.944Z,21.50
2018-02-20T08:39:47.219Z,20.27
2018-02-20T08:42:15.486Z,20.95
2018-02-20T08:44:43.763Z,22.67
2018-02-20T08:47:12.045Z,21.35
2018-02-20T08:49:40.350Z,21.67
2018-02-20T08:52:08.639Z,22.87
2018-02-20T08:54:37.700Z,21.17
2018-02-20T08:57:05.981Z,22.42
2018-02-20T08:59:34.290Z,23.62
2018-02-20T09:02:03.345Z,24.95
2018-02-20T09:04:31.640Z,22.70
2018-02-20T09:06:59.908Z,24.58
2018-02-20T09:09:28.227Z,25.62
2018-02-20T09:11:56.553Z,24.83
2018-02-20T09:14:24.870Z,25.40
2018-02-20T09:16:53.201Z,24.80
2018-02-20T09:19:21.510Z,22.13
2018-02-20T09:21:50.587Z,24.37
2018-02-20T09:24:18.917Z,26.53
2018-02-20T09:26:47.230Z,24.03
2018-02-20T09:29:15.516Z,24.13
2018-02-20T09:31:43.796Z,23.17
2018-02-20T09:34:12.068Z,27.33
2018-02-20T09:36:40.372Z,26.30
2018-02-20T09:39:08.653Z,25.40
2018-02-20T09:41:37.682Z,24.80
2018-02-20T09:44:05.942Z,26.03
2018-02-20T09:46:34.221Z,25.73
2018-02-20T09:49:02.509Z,25.53
2018-02-20T09:51:30.796Z,26.53
2018-02-20T09:53:59.071Z,26.40
2018-02-20T09:56:27.362Z,28.63
2018-02-20T09:58:56.473Z,25.67
2018-02-20T10:01:24.741Z,27.80
2018-02-20T10:03:53.037Z,26.03
2018-02-20T10:06:22.089Z,26.97
2018-02-20T10:08:50.388Z,27.87
2018-02-20T10:11:18.667Z,27.23
2018-02-20T10:13:46.979Z,27.13
2018-02-20T10:16:15.282Z,28.37
2018-02-20T10:18:43.555Z,26.83
2018-02-20T10:21:11.837Z,28.03
2018-02-20T10:23:40.113Z,29.30
2018-02-20T10:26:08.384Z,27.00
2018-02-20T10:28:36.676Z,28.10
2018-02-20T10:31:04.945Z,28.50
2018-02-20T10:33:33.240Z,29.20
2018-02-20T10:36:01.530Z,28.23
2018-02-20T10:38:29.793Z,28.57
2018-02-20T10:40:58.832Z,28.30
2018-02-20T10:43:27.874Z,28.07
2018-02-20T10:45:56.146Z,29.57
2018-02-20T10:48:24.425Z,30.43
2018-02-20T10:50:52.704Z,29.30
2018-02-20T10:53:20.994Z,27.80
2018-02-20T10:55:49.278Z,30.50
2018-02-20T10:58:17.571Z,33.10
2018-02-20T11:00:46.613Z,32.40
2018-02-20T11:03:14.902Z,34.50
2018-02-20T11:05:43.175Z,32.07
2018-02-20T11:08:11.445Z,33.70
2018-02-20T11:10:39.718Z,30.53
2018-02-20T11:13:07.983Z,32.90
2018-02-20T11:15:36.258Z,30.60
2018-02-20T11:18:04.522Z,31.73
2018-02-20T11:20:32.799Z,32.20
2018-02-20T11:23:01.075Z,30.27
2018-02-20T11:25:29.357Z,32.70
2018-02-20T11:27:57.646Z,30.17
2018-02-20T11:30:25.922Z,31.33
2018-02-20T11:32:54.198Z,31.87
2018-02-20T11:35:22.469Z,31.70
2018-02-20T11:37:50.736Z,28.40
2018-02-20T11:40:18.998Z,27.93
2018-02-20T11:42:47.250Z,30.60
2018-02-20T11:45:15.540Z,29.50
2018-02-20T11:47:43.800Z,33.97
2018-02-20T11:50:12.832Z,29.90
2018-02-20T11:52:41.112Z,29.10
2018-02-20T11:55:09.370Z,30.87
2018-02-20T11:57:37.650Z,32.50
2018-02-20T12:00:05.920Z,31.50
2018-02-20T12:02:34.195Z,30.07
2018-02-20T12:05:02.473Z,30.10
2018-02-20T12:07:30.744Z,31.00
2018-02-20T12:09:59.059Z,31.00
2018-02-20T12:12:27.342Z,28.37
2018-02-20T12:14:55.633Z,27.10
2018-02-20T12:17:23.924Z,28.23
2018-02-20T12:19:52.199Z,28.90
2018-02-20T12:22:20.484Z,31.00
2018-02-20T12:24:49.512Z,31.80
2018-02-20T12:27:17.788Z,29.00
2018-02-20T12:29:46.074Z,28.90
2018-02-20T12:32:14.334Z,30.83
2018-02-20T12:34:42.614Z,30.07
2018-02-20T12:37:10.875Z,29.60
2018-02-20T12:39:39.154Z,29.13
2018-02-20T12:42:07.425Z,25.70
2018-02-20T12:44:36.454Z,27.77
2018-02-20T12:47:04.719Z,28.17
2018-02-20T12:49:32.993Z,29.73
2018-02-20T12:52:01.275Z,29.63
2018-02-20T12:54:29.557Z,28.63
2018-02-20T12:56:57.832Z,29.17
2018-02-20T12:59:26.097Z,31.30
2018-02-20T13:01:54.363Z,31.40
2018-02-20T13:04:22.634Z,32.07
2018-02-20T13:06:50.909Z,29.20
2018-02-20T13:09:19.187Z,30.27
2018-02-20T13:11:47.471Z,31.20
2018-02-20T13:14:15.745Z,28.73
2018-02-20T13:16:44.011Z,30.27
2018-02-20T13:19:12.280Z,31.73
2018-02-20T13:21:40.554Z,27.93
2018-02-20T13:24:08.850Z,29.30
2018-02-20T13:26:37.127Z,29.90
2018-02-20T13:29:05.386Z,30.90
2018-02-20T13:31:33.658Z,31.23
2018-02-20T13:34:01.935Z,32.40
2018-02-20T13:36:30.212Z,31.13
2018-02-20T13:38:58.470Z,29.03
2018-02-20T13:41:27.514Z,31.70
2018-02-20T13:43:55.772Z,32.90
2018-02-20T13:46:24.047Z,33.00
2018-02-20T13:48:52.310Z,31.27
2018-02-20T13:51:20.589Z,32.50
2018-02-20T13:53:48.862Z,30.87
2018-02-20T13:56:17.173Z,32.37
2018-02-20T13:58:45.448Z,30.03
2018-02-20T14:01:13.716Z,33.73
2018-02-20T14:03:41.997Z,32.73
2018-02-20T14:06:10.265Z,32.20
2018-02-20T14:08:38.548Z,31.30
2018-02-20T14:11:06.825Z,32.50
2018-02-20T14:13:35.101Z,30.93
2018-02-20T14:16:03.371Z,30.67
2018-02-20T14:18:31.644Z,34.20
2018-02-20T14:20:59.903Z,32.40
2018-02-20T14:23:28.183Z,32.97
2018-02-20T14:25:56.453Z,34.57
2018-02-20T14:28:24.734Z,32.17
2018-02-20T14:30:53.007Z,32.90
2018-02-20T14:33:21.284Z,32.40
2018-02-20T14:35:49.550Z,32.10
2018-02-20T14:38:17.834Z,33.10
2018-02-20T14:40:46.082Z,34.20
2018-02-20T14:43:15.128Z,33.60
2018-02-20T14:45:43.389Z,32.20
2018-02-20T14:48:11.672Z,32.53
2018-02-20T14:50:39.937Z,32.50
2018-02-20T14:53:09.002Z,35.60
2018-02-20T14:55:38.048Z,33.30
2018-02-20T14:58:07.131Z,31.70
2018-02-20T15:00:35.415Z,31.90
2018-02-20T15:03:03.681Z,32.37
2018-02-20T15:05:31.956Z,32.20
2018-02-20T15:08:00.220Z,32.37
2018-02-20T15:10:28.497Z,30.57
2018-02-20T15:12:56.814Z,33.70
2018-02-20T15:15:25.100Z,29.50
2018-02-20T15:17:53.376Z,32.90
2018-02-20T15:20:21.665Z,32.30
2018-02-20T15:22:50.703Z,31.70
2018-02-20T15:25:18.983Z,29.48
2018-02-20T15:27:47.238Z,31.67
2018-02-20T15:30:15.523Z,32.10
2018-02-20T15:32:43.794Z,31.20
2018-02-20T15:35:12.081Z,30.10
2018-02-20T15:37:40.342Z,28.58
2018-02-20T15:40:08.626Z,30.77
2018-02-20T15:42:36.898Z,33.35
2018-02-20T15:45:05.219Z,32.92
2018-02-20T15:47:33.493Z,32.03
2018-02-20T15:50:01.780Z,33.55
2018-02-20T15:52:30.047Z,31.87
2018-02-20T15:54:58.322Z,31.85
2018-02-20T15:57:26.599Z,28.60
2018-02-20T15:59:54.890Z,29.55
2018-02-20T16:02:23.148Z,28.08
2018-02-20T16:04:51.435Z,27.85
2018-02-20T16:07:19.721Z,28.35
2018-02-20T16:09:47.996Z,31.95
2018-02-20T16:12:16.315Z,29.73
2018-02-20T16:14:44.591Z,29.25
2018-02-20T16:17:12.888Z,31.58
2018-02-20T16:19:41.178Z,32.08
2018-02-20T16:22:09.475Z,27.37
2018-02-20T16:24:37.762Z,30.77
2018-02-20T16:27:06.812Z,26.17
2018-02-20T16:29:35.099Z,30.33
2018-02-20T16:32:03.401Z,32.08
2018-02-20T16:34:31.678Z,35.42
2018-02-20T16:36:59.975Z,30.83
2018-02-20T16:39:29.014Z,30.42
2018-02-20T16:41:57.293Z,30.62
2018-02-20T16:44:25.604Z,31.75
2018-02-20T16:46:54.655Z,32.08
2018-02-20T16:49:22.945Z,30.98
2018-02-20T16:51:51.232Z,33.25
2018-02-20T16:54:19.540Z,33.08
2018-02-20T16:56:48.606Z,31.90
2018-02-20T16:59:16.905Z,30.45
2018-02-20T17:01:45.944Z,31.20
2018-02-20T17:04:14.222Z,31.75
2018-02-20T17:06:42.509Z,31.17
2018-02-20T17:09:10.793Z,30.35
2018-02-20T17:11:39.073Z,30.80
2018-02-20T17:14:07.359Z,33.85
2018-02-20T17:16:35.639Z,31.02
2018-02-20T17:19:03.931Z,31.70
2018-02-20T17:21:33.047Z,33.60
2018-02-20T17:24:01.273Z,31.10
2018-02-20T17:26:29.554Z,33.25
2018-02-20T17:28:57.853Z,32.38
2018-02-20T17:31:26.903Z,35.22
2018-02-20T17:33:55.195Z,33.30
2018-02-20T17:36:23.489Z,33.92
2018-02-20T17:38:51.778Z,33.67
2018-02-20T17:41:20.816Z,35.40
2018-02-20T17:43:49.187Z,31.65
2018-02-20T17:46:17.482Z,33.25
2018-02-20T17:48:45.754Z,35.00
2018-02-20T17:51:14.036Z,34.80
2018-02-20T17:53:42.310Z,34.33
2018-02-20T17:56:10.623Z,37.05
2018-02-20T17:58:38.887Z,32.47
2018-02-20T18:01:07.177Z,34.13
2018-02-20T18:03:36.225Z,34.78
2018-02-20T18:06:04.523Z,36.42
2018-02-20T18:08:32.816Z,34.85
2018-02-20T18:11:01.886Z,35.88
2018-02-20T18:13:30.181Z,35.58
2018-02-20T18:15:58.490Z,36.72
2018-02-20T18:18:26.784Z,37.80
2018-02-20T18:20:55.079Z,35.60
2018-02-20T18:23:23.378Z,39.55
2018-02-20T18:25:51.678Z,41.53
2018-02-20T18:28:20.735Z,37.85
2018-02-20T18:30:49.022Z,34.75
2018-02-20T18:33:17.331Z,38.78
2018-02-20T18:35:46.373Z,37.15
2018-02-20T18:38:14.653Z,40.92
2018-02-20T18:40:42.926Z,36.25
2018-02-20T18:43:11.197Z,33.25
2018-02-20T18:45:39.470Z,34.45
2018-02-20T18:48:07.769Z,35.33
2018-02-20T18:50:36.047Z,31.80
2018-02-20T18:53:04.333Z,33.00
2018-02-20T18:55:32.629Z,36.25
2018-02-20T18:58:01.683Z,33.03
2018-02-20T19:00:29.956Z,35.08
2018-02-20T19:02:58.237Z,34.10
2018-02-20T19:05:26.513Z,31.40
2018-02-20T19:07:54.799Z,31.00
2018-02-20T19:10:23.085Z,33.15
2018-02-20T19:12:51.368Z,30.75
2018-02-20T19:15:19.641Z,32.47
2018-02-20T19:17:47.919Z,33.25
2018-02-20T19:20:16.217Z,31.95
2018-02-20T19:22:45.271Z,31.15
2018-02-20T19:25:13.553Z,30.25
2018-02-20T19:27:41.852Z,31.65
2018-02-20T19:30:10.897Z,35.28
2018-02-20T19:32:39.213Z,31.87
2018-02-20T19:35:07.476Z,31.50
2018-02-20T19:37:35.772Z,33.40
2018-02-20T19:40:04.071Z,32.38
2018-02-20T19:42:32.319Z,33.53
2018-02-20T19:45:00.595Z,33.50
2018-02-20T19:47:28.887Z,33.15
2018-02-20T19:49:57.943Z,31.37
2018-02-20T19:52:26.216Z,28.20
2018-02-20T19:54:54.520Z,32.13
2018-02-20T19:57:22.799Z,31.60
2018-02-20T19:59:51.091Z,32.35
2018-02-20T20:02:20.129Z,32.28
2018-02-20T20:04:48.426Z,31.83
2018-02-20T20:07:16.723Z,32.10
2018-02-20T20:09:45.766Z,33.72
2018-02-20T20:12:14.824Z,30.12
2018-02-20T20:14:43.105Z,32.08
2018-02-20T20:17:12.143Z,33.17
2018-02-20T20:19:40.431Z,31.42
2018-02-20T20:22:08.721Z,32.35
2018-02-20T20:24:37.830Z,33.22
2018-02-20T20:27:06.058Z,35.00
2018-02-20T20:29:34.346Z,32.20
2018-02-20T20:32:02.631Z,34.03
2018-02-20T20:34:30.918Z,32.38
2018-02-20T20:36:59.209Z,36.45
2018-02-20T20:39:28.237Z,34.80
2018-02-20T20:41:56.528Z,40.80
2018-02-20T20:44:24.799Z,34.55
2018-02-20T20:46:53.081Z,33.38
2018-02-20T20:49:21.364Z,36.83
2018-02-20T20:51:49.651Z,35.42
2018-02-20T20:54:17.947Z,34.15
2018-02-20T20:56:46.265Z,33.55
2018-02-20T20:59:14.557Z,34.03
2018-02-20T21:01:42.838Z,35.13
2018-02-20T21:04:11.111Z,32.53
2018-02-20T21:06:39.393Z,36.60
2018-02-20T21:09:07.659Z,33.13
2018-02-20T21:11:35.950Z,33.25
2018-02-20T21:14:04.224Z,37.88
2018-02-20T21:16:32.516Z,35.25
2018-02-20T21:19:00.807Z,33.95
2018-02-20T21:21:29.128Z,35.05
2018-02-20T21:23:57.353Z,35.38
2018-02-20T21:26:25.661Z,32.42
2018-02-20T21:28:53.945Z,35.72
2018-02-20T21:31:22.225Z,34.63
2018-02-20T21:33:50.525Z,35.40
2018-02-20T21:36:18.803Z,34.75
2018-02-20T21:38:47.098Z,33.80
2018-02-20T21:41:15.366Z,33.47
2018-02-20T21:43:43.682Z,35.25
2018-02-20T21:46:11.950Z,32.72
2018-02-20T21:48:40.269Z,35.60
2018-02-20T21:51:08.543Z,35.90
2018-02-20T21:53:36.882Z,35.97
2018-02-20T21:56:05.183Z,35.35
2018-02-20T21:58:34.247Z,35.83
2018-02-20T22:01:02.614Z,34.88
2018-02-20T22:03:30.914Z,35.05
2018-02-20T22:05:59.984Z,32.95
2018-02-20T22:08:29.806Z,36.60
2018-02-20T22:10:58.107Z,34.85
2018-02-20T22:13:27.185Z,37.03
2018-02-20T22:15:55.561Z,35.10
2018-02-20T22:18:23.883Z,37.53
2018-02-20T22:20:52.287Z,33.83
2018-02-20T22:23:20.630Z,35.63
2018-02-20T22:25:49.000Z,34.17
2018-02-20T22:28:17.303Z,35.53
2018-02-20T22:30:45.626Z,34.97
2018-02-20T22:33:13.983Z,34.85
2018-02-20T22:35:42.314Z,37.30
2018-02-20T22:38:10.606Z,37.50
2018-02-20T22:40:38.966Z,36.35
2018-02-20T22:43:07.277Z,34.38
2018-02-20T22:45:35.593Z,39.67
2018-02-20T22:48:03.936Z,39.55
2018-02-20T22:50:32.243Z,38.63
2018-02-20T22:53:00.606Z,42.30
2018-02-20T22:55:28.936Z,39.92
2018-02-20T22:57:57.331Z,41.95
2018-02-20T23:00:25.639Z,41.30
2018-02-20T23:02:53.973Z,38.00
2018-02-20T23:05:22.279Z,40.33
2018-02-20T23:07:50.563Z,40.10
2018-02-20T23:10:18.958Z,40.38
2018-02-20T23:12:47.260Z,43.20
2018-02-20T23:15:16.376Z,38.88
2018-02-20T23:17:44.677Z,43.05
2018-02-20T23:20:12.991Z,43.05
2018-02-20T23:22:42.091Z,43.42
2018-02-20T23:25:11.180Z,42.62
2018-02-20T23:27:39.519Z,40.58
2018-02-20T23:30:07.823Z,44.40
2018-02-20T23:32:36.155Z,40.28
2018-02-20T23:35:04.495Z,43.58
2018-02-20T23:37:33.649Z,43.28
2018-02-20T23:40:02.695Z,43.80
2018-02-20T23:42:31.968Z,49.30
2018-02-20T23:45:00.379Z,42.28
2018-02-20T23:47:28.795Z,41.37
2018-02-20T23:49:57.131Z,41.28
2018-02-20T23:52:26.261Z,44.05
2018-02-20T23:54:54.582Z,46.55
2018-02-20T23:57:22.883Z,47.33
2018-02-20T23:59:51.149Z,43.60
